PWSweather.com
Personal Weather Stations
Station Observations
RW002
Arlington, VA 22207

Arlington, VA 22207

Lat: 38.8955, Lon: -77.1443

Elevation: 390

Station Type: Davis Vantage Pro II

jp_angelone@msn.com

High Low Average
Temperature 55.9°F13.3°C 51.4°F10.8°C 53.7°F12.1°C
Dew Point 52.4°F11.3°C 48.7°F9.3°C 51.1°F10.6°C
Winds 12.0 mph 19.3 kmh Calm Calm 1.0 mph SSE1.6 kmh SSE
Wind Gusts 15.0 mph24.1 kmh -- 4.0 mph6.4 kmh
Humidity 93% 81% 91%
Pressure 29.98 in1015.2 mb 29.82 in1009.8 mb -
Precipitation 1.69 in42.9 mm - -
Hour Temp Dew Point Humidity Winds Wind Gusts Pressure Precip Precip Rate Daily Precip Total
12:03 AM 54.6°F12.6°C 48.9°F9.4°C 81% Calm Calm -- 29.98 in1015.2 mb 0.00 in0.0 mm 0.00 in0.0 mm 0.00 in0.0 mm
12:08 AM 54.5°F12.5°C 48.8°F9.3°C 81% Calm Calm -- 29.97 in1014.9 mb 0.00 in0.0 mm 0.00 in0.0 mm 0.00 in0.0 mm
12:13 AM 54.4°F12.4°C 48.7°F9.3°C 81% Calm Calm -- 29.97 in1014.9 mb 0.00 in0.0 mm 0.00 in0.0 mm 0.00 in0.0 mm
12:18 AM 54.4°F12.4°C 48.7°F9.3°C 81% Calm Calm -- 29.97 in1014.9 mb 0.00 in0.0 mm 0.00 in0.0 mm 0.00 in0.0 mm
12:23 AM 54.3°F12.4°C 48.9°F9.4°C 82% Calm Calm -- 29.97 in1014.9 mb 0.00 in0.0 mm 0.00 in0.0 mm 0.00 in0.0 mm
12:28 AM 54.4°F12.4°C 49.0°F9.4°C 82% Calm Calm -- 29.97 in1014.9 mb 0.00 in0.0 mm 0.00 in0.0 mm 0.00 in0.0 mm
12:33 AM 54.4°F12.4°C 49.0°F9.4°C 82% Calm Calm -- 29.97 in1014.9 mb 0.00 in0.0 mm 0.00 in0.0 mm 0.00 in0.0 mm
12:38 AM 54.3°F12.4°C 48.9°F9.4°C 82% Calm Calm -- 29.97 in1014.9 mb 0.00 in0.0 mm 0.00 in0.0 mm 0.00 in0.0 mm
12:43 AM 54.3°F12.4°C 49.2°F9.6°C 83% Calm Calm -- 29.97 in1014.9 mb 0.00 in0.0 mm 0.00 in0.0 mm 0.00 in0.0 mm
12:48 AM 54.4°F12.4°C 49.3°F9.6°C 83% Calm Calm 2.0 mph3.2 kmh 29.97 in1014.9 mb 0.00 in0.0 mm 0.00 in0.0 mm 0.00 in0.0 mm
12:53 AM 54.4°F12.4°C 49.3°F9.6°C 83% Calm Calm -- 29.96 in1014.6 mb 0.00 in0.0 mm 0.00 in0.0 mm 0.00 in0.0 mm
12:58 AM 54.4°F12.4°C 49.3°F9.6°C 83% Calm Calm -- 29.96 in1014.6 mb 0.00 in0.0 mm 0.00 in0.0 mm 0.00 in0.0 mm
01:03 AM 54.5°F12.5°C 49.4°F9.7°C 83% Calm Calm -- 29.96 in1014.6 mb 0.00 in0.0 mm 0.00 in0.0 mm 0.00 in0.0 mm
01:08 AM 54.6°F12.6°C 49.2°F9.6°C 82% Calm Calm -- 29.96 in1014.6 mb 0.00 in0.0 mm 0.00 in0.0 mm 0.00 in0.0 mm
01:13 AM 54.6°F12.6°C 49.2°F9.6°C 82% Calm Calm -- 29.96 in1014.6 mb 0.00 in0.0 mm 0.00 in0.0 mm 0.00 in0.0 mm
01:18 AM 54.7°F12.6°C 49.3°F9.6°C 82% Calm Calm -- 29.96 in1014.6 mb 0.00 in0.0 mm 0.00 in0.0 mm 0.00 in0.0 mm
01:23 AM 54.8°F12.7°C 49.4°F9.7°C 82% Calm Calm -- 29.95 in1014.2 mb 0.00 in0.0 mm 0.00 in0.0 mm 0.00 in0.0 mm
01:28 AM 54.9°F12.7°C 49.5°F9.7°C 82% Calm Calm -- 29.95 in1014.2 mb 0.00 in0.0 mm 0.00 in0.0 mm 0.00 in0.0 mm
01:33 AM 55.0°F12.8°C 49.6°F9.8°C 82% Calm Calm -- 29.95 in1014.2 mb 0.00 in0.0 mm 0.00 in0.0 mm 0.00 in0.0 mm
01:38 AM 55.1°F12.8°C 49.7°F9.8°C 82% Calm Calm -- 29.95 in1014.2 mb 0.00 in0.0 mm 0.00 in0.0 mm 0.00 in0.0 mm
01:43 AM 55.1°F12.8°C 49.7°F9.8°C 82% Calm Calm -- 29.95 in1014.2 mb 0.00 in0.0 mm 0.00 in0.0 mm 0.00 in0.0 mm
01:48 AM 55.2°F12.9°C 49.8°F9.9°C 82% Calm Calm -- 29.94 in1013.9 mb 0.00 in0.0 mm 0.00 in0.0 mm 0.00 in0.0 mm
01:53 AM 55.3°F12.9°C 49.9°F9.9°C 82% Calm Calm -- 29.94 in1013.9 mb 0.00 in0.0 mm 0.00 in0.0 mm 0.00 in0.0 mm
01:58 AM 55.3°F12.9°C 49.9°F9.9°C 82% Calm Calm -- 29.94 in1013.9 mb 0.00 in0.0 mm 0.00 in0.0 mm 0.00 in0.0 mm
02:03 AM 55.4°F13.0°C 50.0°F10.0°C 82% Calm Calm -- 29.94 in1013.9 mb 0.00 in0.0 mm 0.00 in0.0 mm 0.00 in0.0 mm
02:08 AM 55.4°F13.0°C 50.3°F10.2°C 83% Calm Calm -- 29.94 in1013.9 mb 0.00 in0.0 mm 0.00 in0.0 mm 0.00 in0.0 mm
02:13 AM 55.4°F13.0°C 50.3°F10.2°C 83% Calm Calm -- 29.94 in1013.9 mb 0.00 in0.0 mm 0.00 in0.0 mm 0.00 in0.0 mm
02:18 AM 55.5°F13.1°C 50.4°F10.2°C 83% Calm Calm -- 29.93 in1013.5 mb 0.00 in0.0 mm 0.00 in0.0 mm 0.00 in0.0 mm
02:23 AM 55.5°F13.1°C 50.4°F10.2°C 83% Calm Calm -- 29.93 in1013.5 mb 0.00 in0.0 mm 0.00 in0.0 mm 0.00 in0.0 mm
02:28 AM 55.5°F13.1°C 50.4°F10.2°C 83% Calm Calm -- 29.93 in1013.5 mb 0.00 in0.0 mm 0.00 in0.0 mm 0.00 in0.0 mm
02:33 AM 55.5°F13.1°C 50.4°F10.2°C 83% Calm Calm -- 29.93 in1013.5 mb 0.00 in0.0 mm 0.00 in0.0 mm 0.00 in0.0 mm
02:38 AM 55.5°F13.1°C 50.4°F10.2°C 83% Calm Calm -- 29.93 in1013.5 mb 0.00 in0.0 mm 0.00 in0.0 mm 0.00 in0.0 mm
02:43 AM 55.6°F13.1°C 50.5°F10.3°C 83% Calm Calm -- 29.93 in1013.5 mb 0.00 in0.0 mm 0.00 in0.0 mm 0.00 in0.0 mm
02:48 AM 55.7°F13.2°C 50.6°F10.3°C 83% Calm Calm -- 29.93 in1013.5 mb 0.00 in0.0 mm 0.00 in0.0 mm 0.00 in0.0 mm
02:53 AM 55.6°F13.1°C 50.5°F10.3°C 83% Calm Calm -- 29.93 in1013.5 mb 0.00 in0.0 mm 0.00 in0.0 mm 0.00 in0.0 mm
02:58 AM 55.6°F13.1°C 50.5°F10.3°C 83% Calm Calm -- 29.93 in1013.5 mb 0.00 in0.0 mm 0.00 in0.0 mm 0.00 in0.0 mm
03:03 AM 55.7°F13.2°C 50.6°F10.3°C 83% Calm Calm -- 29.93 in1013.5 mb 0.00 in0.0 mm 0.00 in0.0 mm 0.00 in0.0 mm
03:08 AM 55.7°F13.2°C 50.6°F10.3°C 83% Calm Calm -- 29.93 in1013.5 mb 0.00 in0.0 mm 0.00 in0.0 mm 0.00 in0.0 mm
03:13 AM 55.7°F13.2°C 50.6°F10.3°C 83% Calm Calm -- 29.92 in1013.2 mb 0.00 in0.0 mm 0.00 in0.0 mm 0.00 in0.0 mm
03:18 AM 55.7°F13.2°C 50.6°F10.3°C 83% Calm Calm -- 29.92 in1013.2 mb 0.00 in0.0 mm 0.00 in0.0 mm 0.00 in0.0 mm
03:23 AM 55.7°F13.2°C 50.6°F10.3°C 83% Calm Calm -- 29.92 in1013.2 mb 0.00 in0.0 mm 0.00 in0.0 mm 0.00 in0.0 mm
03:28 AM 55.7°F13.2°C 50.6°F10.3°C 83% Calm Calm -- 29.92 in1013.2 mb 0.00 in0.0 mm 0.00 in0.0 mm 0.00 in0.0 mm
03:33 AM 55.7°F13.2°C 50.6°F10.3°C 83% Calm Calm -- 29.92 in1013.2 mb 0.00 in0.0 mm 0.00 in0.0 mm 0.00 in0.0 mm
03:38 AM 55.7°F13.2°C 50.6°F10.3°C 83% Calm Calm -- 29.92 in1013.2 mb 0.00 in0.0 mm 0.00 in0.0 mm 0.00 in0.0 mm
03:43 AM 55.8°F13.2°C 50.7°F10.4°C 83% Calm Calm -- 29.92 in1013.2 mb 0.00 in0.0 mm 0.00 in0.0 mm 0.00 in0.0 mm
03:48 AM 55.8°F13.2°C 50.7°F10.4°C 83% Calm Calm -- 29.92 in1013.2 mb 0.00 in0.0 mm 0.00 in0.0 mm 0.00 in0.0 mm
03:53 AM 55.8°F13.2°C 51.0°F10.6°C 84% Calm Calm -- 29.93 in1013.5 mb 0.00 in0.0 mm 0.00 in0.0 mm 0.00 in0.0 mm
03:58 AM 55.9°F13.3°C 51.1°F10.6°C 84% Calm Calm -- 29.93 in1013.5 mb 0.00 in0.0 mm 0.00 in0.0 mm 0.00 in0.0 mm
04:03 AM 55.9°F13.3°C 51.1°F10.6°C 84% Calm Calm -- 29.93 in1013.5 mb 0.00 in0.0 mm 0.00 in0.0 mm 0.00 in0.0 mm
04:08 AM 55.9°F13.3°C 51.1°F10.6°C 84% Calm Calm -- 29.93 in1013.5 mb 0.00 in0.0 mm 0.00 in0.0 mm 0.00 in0.0 mm
04:13 AM 55.9°F13.3°C 51.5°F10.8°C 85% Calm Calm -- 29.93 in1013.5 mb 0.00 in0.0 mm 0.00 in0.0 mm 0.00 in0.0 mm
04:18 AM 55.8°F13.2°C 51.4°F10.8°C 85% Calm Calm -- 29.93 in1013.5 mb 0.00 in0.0 mm 0.00 in0.0 mm 0.00 in0.0 mm
04:23 AM 55.7°F13.2°C 51.6°F10.9°C 86% Calm Calm -- 29.93 in1013.5 mb 0.00 in0.0 mm 0.00 in0.0 mm 0.00 in0.0 mm
04:28 AM 55.5°F13.1°C 51.7°F10.9°C 87% Calm Calm -- 29.94 in1013.9 mb 0.00 in0.0 mm 0.00 in0.0 mm 0.00 in0.0 mm
04:33 AM 55.3°F12.9°C 51.8°F11.0°C 88% Calm Calm -- 29.94 in1013.9 mb 0.00 in0.0 mm 0.00 in0.0 mm 0.00 in0.0 mm
04:38 AM 55.1°F12.8°C 51.6°F10.9°C 88% Calm Calm -- 29.94 in1013.9 mb 0.09 in2.3 mm 1.08 in27.4 mm 0.01 in0.3 mm
04:43 AM 55.0°F12.8°C 51.8°F11.0°C 89% Calm Calm -- 29.94 in1013.9 mb 0.11 in2.8 mm 0.24 in6.1 mm 0.02 in0.5 mm
04:48 AM 54.8°F12.7°C 51.6°F10.9°C 89% Calm Calm -- 29.94 in1013.9 mb 0.11 in2.8 mm 0.00 in0.0 mm 0.03 in0.8 mm
04:53 AM 54.8°F12.7°C 51.6°F10.9°C 89% Calm Calm -- 29.94 in1013.9 mb 0.08 in2.0 mm 0.00 in0.0 mm 0.04 in1.0 mm
04:58 AM 54.6°F12.6°C 51.7°F10.9°C 90% Calm Calm -- 29.95 in1014.2 mb 0.11 in2.8 mm 0.36 in9.1 mm 0.04 in1.0 mm
05:03 AM 54.5°F12.5°C 51.6°F10.9°C 90% Calm Calm -- 29.95 in1014.2 mb 0.09 in2.3 mm 0.00 in0.0 mm 0.05 in1.3 mm
05:08 AM 54.4°F12.4°C 51.5°F10.8°C 90% Calm Calm -- 29.95 in1014.2 mb 0.09 in2.3 mm 0.00 in0.0 mm 0.06 in1.5 mm
05:13 AM 54.2°F12.3°C 51.6°F10.9°C 91% Calm Calm -- 29.95 in1014.2 mb 0.09 in2.3 mm 0.00 in0.0 mm 0.07 in1.8 mm
05:18 AM 53.8°F12.1°C 51.2°F10.7°C 91% Calm Calm 3.0 mph4.8 kmh 29.95 in1014.2 mb 0.08 in2.0 mm 0.00 in0.0 mm 0.07 in1.8 mm
05:23 AM 53.4°F11.9°C 50.8°F10.4°C 91% Calm Calm -- 29.95 in1014.2 mb 0.08 in2.0 mm 0.00 in0.0 mm 0.08 in2.0 mm
05:28 AM 53.2°F11.8°C 50.6°F10.3°C 91% Calm Calm -- 29.95 in1014.2 mb 0.09 in2.3 mm 0.12 in3.0 mm 0.09 in2.3 mm
05:33 AM 53.1°F11.7°C 50.5°F10.3°C 91% Calm Calm -- 29.94 in1013.9 mb 0.08 in2.0 mm 0.00 in0.0 mm 0.09 in2.3 mm
05:38 AM 53.0°F11.7°C 50.4°F10.2°C 91% Calm Calm -- 29.94 in1013.9 mb 0.12 in3.0 mm 0.48 in12.2 mm 0.10 in2.5 mm
05:43 AM 52.9°F11.6°C 50.3°F10.2°C 91% Calm Calm -- 29.94 in1013.9 mb 0.09 in2.3 mm 0.00 in0.0 mm 0.11 in2.8 mm
05:48 AM 52.7°F11.5°C 50.4°F10.2°C 92% Calm Calm -- 29.94 in1013.9 mb 0.07 in1.8 mm 0.00 in0.0 mm 0.11 in2.8 mm
05:53 AM 52.6°F11.4°C 50.0°F10.0°C 91% Calm Calm -- 29.94 in1013.9 mb 0.07 in1.8 mm 0.00 in0.0 mm 0.12 in3.0 mm
05:58 AM 52.6°F11.4°C 50.3°F10.2°C 92% Calm Calm -- 29.94 in1013.9 mb 0.05 in1.3 mm 0.00 in0.0 mm 0.12 in3.0 mm
06:03 AM 52.5°F11.4°C 50.2°F10.1°C 92% Calm Calm -- 29.94 in1013.9 mb 0.05 in1.3 mm 0.00 in0.0 mm 0.13 in3.3 mm
06:08 AM 52.4°F11.3°C 50.1°F10.1°C 92% Calm Calm -- 29.94 in1013.9 mb 0.09 in2.3 mm 0.48 in12.2 mm 0.14 in3.6 mm
06:13 AM 52.3°F11.3°C 50.0°F10.0°C 92% Calm Calm -- 29.94 in1013.9 mb 0.10 in2.5 mm 0.12 in3.0 mm 0.15 in3.8 mm
06:18 AM 52.2°F11.2°C 49.9°F9.9°C 92% Calm Calm -- 29.94 in1013.9 mb 0.07 in1.8 mm 0.00 in0.0 mm 0.15 in3.8 mm
06:23 AM 52.1°F11.2°C 49.8°F9.9°C 92% Calm Calm 2.0 mph3.2 kmh 29.94 in1013.9 mb 0.06 in1.5 mm 0.00 in0.0 mm 0.16 in4.1 mm
06:28 AM 52.0°F11.1°C 49.7°F9.8°C 92% Calm Calm -- 29.94 in1013.9 mb 0.08 in2.0 mm 0.24 in6.1 mm 0.16 in4.1 mm
06:33 AM 51.9°F11.1°C 49.6°F9.8°C 92% Calm Calm -- 29.94 in1013.9 mb 0.08 in2.0 mm 0.00 in0.0 mm 0.17 in4.3 mm
06:38 AM 51.8°F11.0°C 49.5°F9.7°C 92% Calm Calm -- 29.93 in1013.5 mb 0.07 in1.8 mm 0.00 in0.0 mm 0.18 in4.6 mm
06:43 AM 51.8°F11.0°C 49.5°F9.7°C 92% Calm Calm -- 29.93 in1013.5 mb 0.08 in2.0 mm 0.12 in3.0 mm 0.18 in4.6 mm
06:48 AM 51.7°F10.9°C 49.5°F9.7°C 92% Calm Calm -- 29.93 in1013.5 mb 0.09 in2.3 mm 0.12 in3.0 mm 0.19 in4.8 mm
06:53 AM 51.6°F10.9°C 49.4°F9.7°C 92% Calm Calm -- 29.93 in1013.5 mb 0.09 in2.3 mm 0.00 in0.0 mm 0.20 in5.1 mm
06:58 AM 51.5°F10.8°C 49.3°F9.6°C 92% Calm Calm -- 29.93 in1013.5 mb 0.10 in2.5 mm 0.12 in3.0 mm 0.21 in5.3 mm
07:03 AM 51.4°F10.8°C 49.2°F9.6°C 92% Calm Calm -- 29.93 in1013.5 mb 0.07 in1.8 mm 0.00 in0.0 mm 0.21 in5.3 mm
07:08 AM 51.4°F10.8°C 49.2°F9.6°C 92% Calm Calm -- 29.93 in1013.5 mb 0.07 in1.8 mm 0.00 in0.0 mm 0.22 in5.6 mm
07:13 AM 51.5°F10.8°C 49.3°F9.6°C 92% Calm Calm -- 29.93 in1013.5 mb 0.07 in1.8 mm 0.00 in0.0 mm 0.22 in5.6 mm
07:18 AM 51.5°F10.8°C 49.3°F9.6°C 92% Calm Calm -- 29.93 in1013.5 mb 0.07 in1.8 mm 0.00 in0.0 mm 0.23 in5.8 mm
07:23 AM 51.5°F10.8°C 49.3°F9.6°C 92% Calm Calm 3.0 mph4.8 kmh 29.93 in1013.5 mb 0.06 in1.5 mm 0.00 in0.0 mm 0.23 in5.8 mm
07:28 AM 51.5°F10.8°C 49.3°F9.6°C 92% Calm Calm -- 29.93 in1013.5 mb 0.11 in2.8 mm 0.60 in15.2 mm 0.24 in6.1 mm
07:33 AM 51.6°F10.9°C 49.4°F9.7°C 92% Calm Calm -- 29.93 in1013.5 mb 0.47 in11.9 mm 4.32 in109.7 mm 0.25 in6.4 mm
07:38 AM 51.8°F11.0°C 49.8°F9.9°C 93% Calm Calm -- 29.93 in1013.5 mb 0.22 in5.6 mm 0.00 in0.0 mm 0.27 in6.9 mm
07:43 AM 51.9°F11.1°C 49.9°F9.9°C 93% Calm Calm -- 29.94 in1013.9 mb 0.15 in3.8 mm 0.00 in0.0 mm 0.29 in7.4 mm
07:48 AM 51.9°F11.1°C 49.9°F9.9°C 93% Calm Calm -- 29.94 in1013.9 mb 0.17 in4.3 mm 0.24 in6.1 mm 0.30 in7.6 mm
07:53 AM 52.1°F11.2°C 49.8°F9.9°C 92% Calm Calm -- 29.94 in1013.9 mb 0.13 in3.3 mm 0.00 in0.0 mm 0.32 in8.1 mm
07:58 AM 52.2°F11.2°C 49.9°F9.9°C 92% Calm Calm -- 29.94 in1013.9 mb 0.13 in3.3 mm 0.00 in0.0 mm 0.33 in8.4 mm
08:03 AM 52.4°F11.3°C 50.4°F10.2°C 93% Calm Calm -- 29.94 in1013.9 mb 0.17 in4.3 mm 0.04 in1.0 mm 0.34 in8.6 mm
08:08 AM 52.4°F11.3°C 50.4°F10.2°C 93% Calm Calm -- 29.94 in1013.9 mb 0.45 in11.4 mm 3.36 in85.3 mm 0.35 in8.9 mm
08:13 AM 52.5°F11.4°C 50.5°F10.3°C 93% Calm Calm -- 29.94 in1013.9 mb 0.17 in4.3 mm 0.00 in0.0 mm 0.39 in9.9 mm
08:18 AM 52.6°F11.4°C 50.6°F10.3°C 93% Calm Calm -- 29.94 in1013.9 mb 0.27 in6.9 mm 1.20 in30.5 mm 0.40 in10.2 mm
08:23 AM 52.6°F11.4°C 50.6°F10.3°C 93% Calm Calm -- 29.95 in1014.2 mb 0.20 in5.1 mm 0.00 in0.0 mm 0.42 in10.7 mm
08:28 AM 52.6°F11.4°C 50.6°F10.3°C 93% Calm Calm -- 29.95 in1014.2 mb 0.13 in3.3 mm 0.00 in0.0 mm 0.43 in10.9 mm
08:33 AM 52.6°F11.4°C 50.6°F10.3°C 93% Calm Calm -- 29.95 in1014.2 mb 0.17 in4.3 mm 0.48 in12.2 mm 0.45 in11.4 mm
08:38 AM 52.6°F11.4°C 50.6°F10.3°C 93% Calm Calm -- 29.95 in1014.2 mb 0.19 in4.8 mm 0.24 in6.1 mm 0.47 in11.9 mm
08:43 AM 52.6°F11.4°C 50.6°F10.3°C 93% Calm Calm -- 29.95 in1014.2 mb 0.34 in8.6 mm 1.80 in45.7 mm 0.48 in12.2 mm
08:48 AM 52.5°F11.4°C 50.5°F10.3°C 93% Calm Calm -- 29.94 in1013.9 mb 0.21 in5.3 mm 0.00 in0.0 mm 0.51 in13.0 mm
08:53 AM 52.5°F11.4°C 50.5°F10.3°C 93% Calm Calm 2.0 mph3.2 kmh 29.94 in1013.9 mb 0.37 in9.4 mm 1.92 in48.8 mm 0.53 in13.5 mm
08:58 AM 52.5°F11.4°C 50.5°F10.3°C 93% Calm Calm -- 29.94 in1013.9 mb 0.22 in5.6 mm 0.00 in0.0 mm 0.56 in14.2 mm
09:03 AM 52.6°F11.4°C 50.6°F10.3°C 93% Calm Calm -- 29.94 in1013.9 mb 0.21 in5.3 mm 0.00 in0.0 mm 0.59 in15.0 mm
09:08 AM 52.7°F11.5°C 50.7°F10.4°C 93% Calm Calm -- 29.94 in1013.9 mb 0.13 in3.3 mm 0.00 in0.0 mm 0.60 in15.2 mm
09:13 AM 52.8°F11.6°C 50.8°F10.4°C 93% Calm Calm -- 29.93 in1013.5 mb 0.13 in3.3 mm 0.00 in0.0 mm 0.61 in15.5 mm
09:18 AM 52.9°F11.6°C 50.9°F10.5°C 93% Calm Calm -- 29.93 in1013.5 mb 0.17 in4.3 mm 0.48 in12.2 mm 0.63 in16.0 mm
09:23 AM 53.0°F11.7°C 51.0°F10.6°C 93% Calm Calm 4.0 mph6.4 kmh 29.93 in1013.5 mb 0.11 in2.8 mm 0.00 in0.0 mm 0.64 in16.3 mm
09:28 AM 53.1°F11.7°C 51.1°F10.6°C 93% Calm Calm 4.0 mph6.4 kmh 29.93 in1013.5 mb 0.12 in3.0 mm 0.12 in3.0 mm 0.65 in16.5 mm
09:33 AM 53.2°F11.8°C 51.2°F10.7°C 93% Calm Calm -- 29.93 in1013.5 mb 0.08 in2.0 mm 0.00 in0.0 mm 0.65 in16.5 mm
09:38 AM 53.2°F11.8°C 51.2°F10.7°C 93% Calm Calm 1.0 mph1.6 kmh 29.93 in1013.5 mb 0.06 in1.5 mm 0.00 in0.0 mm 0.66 in16.8 mm
09:43 AM 53.4°F11.9°C 51.4°F10.8°C 93% Calm Calm 4.0 mph6.4 kmh 29.92 in1013.2 mb 0.06 in1.5 mm 0.00 in0.0 mm 0.66 in16.8 mm
09:48 AM 53.4°F11.9°C 51.4°F10.8°C 93% Calm Calm 5.0 mph8.0 kmh 29.92 in1013.2 mb 0.05 in1.3 mm 0.00 in0.0 mm 0.66 in16.8 mm
09:53 AM 53.5°F11.9°C 51.5°F10.8°C 93% Calm Calm 2.0 mph3.2 kmh 29.92 in1013.2 mb 0.04 in1.0 mm 0.00 in0.0 mm 0.67 in17.0 mm
09:58 AM 53.5°F11.9°C 51.5°F10.8°C 93% Calm Calm 6.0 mph9.7 kmh 29.92 in1013.2 mb 0.37 in9.4 mm 3.96 in100.6 mm 0.67 in17.0 mm
10:03 AM 53.4°F11.9°C 51.4°F10.8°C 93% Calm Calm 4.0 mph6.4 kmh 29.92 in1013.2 mb 0.29 in7.4 mm 0.00 in0.0 mm 0.70 in17.8 mm
10:08 AM 53.4°F11.9°C 51.4°F10.8°C 93% Calm Calm 5.0 mph8.0 kmh 29.92 in1013.2 mb 0.16 in4.1 mm 0.00 in0.0 mm 0.71 in18.0 mm
10:13 AM 53.4°F11.9°C 51.4°F10.8°C 93% 1.0 mph E1.6 kmh E 5.0 mph8.0 kmh 29.91 in1012.9 mb 0.11 in2.8 mm 0.00 in0.0 mm 0.72 in18.3 mm
10:18 AM 53.4°F11.9°C 51.4°F10.8°C 93% Calm Calm 1.0 mph1.6 kmh 29.91 in1012.9 mb 0.12 in3.0 mm 0.12 in3.0 mm 0.73 in18.5 mm
10:23 AM 53.4°F11.9°C 51.4°F10.8°C 93% Calm Calm 9.0 mph14.5 kmh 29.91 in1012.9 mb 0.11 in2.8 mm 0.00 in0.0 mm 0.74 in18.8 mm
10:28 AM 53.4°F11.9°C 51.4°F10.8°C 93% 3.0 mph NE4.8 kmh NE 3.0 mph4.8 kmh 29.91 in1012.9 mb 0.08 in2.0 mm 0.00 in0.0 mm 0.75 in19.1 mm
10:33 AM 53.3°F11.8°C 51.3°F10.7°C 93% Calm Calm 7.0 mph11.3 kmh 29.90 in1012.5 mb 0.08 in2.0 mm 0.00 in0.0 mm 0.76 in19.3 mm
10:38 AM 53.3°F11.8°C 51.3°F10.7°C 93% 3.0 mph NNE4.8 kmh NNE 6.0 mph9.7 kmh 29.91 in1012.9 mb 0.08 in2.0 mm 0.00 in0.0 mm 0.77 in19.6 mm
10:43 AM 53.3°F11.8°C 51.3°F10.7°C 93% Calm Calm 6.0 mph9.7 kmh 29.91 in1012.9 mb 0.10 in2.5 mm 0.24 in6.1 mm 0.77 in19.6 mm
10:48 AM 53.3°F11.8°C 51.3°F10.7°C 93% Calm Calm 8.0 mph12.9 kmh 29.90 in1012.5 mb 0.15 in3.8 mm 0.60 in15.2 mm 0.78 in19.8 mm
10:53 AM 53.2°F11.8°C 51.2°F10.7°C 93% Calm Calm 8.0 mph12.9 kmh 29.90 in1012.5 mb 0.13 in3.3 mm 0.00 in0.0 mm 0.80 in20.3 mm
10:58 AM 53.3°F11.8°C 51.3°F10.7°C 93% Calm Calm 8.0 mph12.9 kmh 29.90 in1012.5 mb 0.14 in3.6 mm 0.12 in3.0 mm 0.81 in20.6 mm
11:03 AM 53.2°F11.8°C 51.2°F10.7°C 93% Calm Calm 10.0 mph16.1 kmh 29.89 in1012.2 mb 0.09 in2.3 mm 0.00 in0.0 mm 0.81 in20.6 mm
11:08 AM 53.2°F11.8°C 51.2°F10.7°C 93% Calm Calm 10.0 mph16.1 kmh 29.89 in1012.2 mb 0.11 in2.8 mm 0.24 in6.1 mm 0.82 in20.8 mm
11:13 AM 53.2°F11.8°C 51.2°F10.7°C 93% 12.0 mph NE19.3 kmh NE 12.0 mph19.3 kmh 29.89 in1012.2 mb 0.13 in3.3 mm 0.24 in6.1 mm 0.83 in21.1 mm
11:18 AM 53.1°F11.7°C 51.1°F10.6°C 93% 2.0 mph NE3.2 kmh NE 12.0 mph19.3 kmh 29.89 in1012.2 mb 0.08 in2.0 mm 0.00 in0.0 mm 0.84 in21.3 mm
11:23 AM 53.1°F11.7°C 51.1°F10.6°C 93% Calm Calm 7.0 mph11.3 kmh 29.89 in1012.2 mb 0.08 in2.0 mm 0.00 in0.0 mm 0.85 in21.6 mm
11:28 AM 53.1°F11.7°C 51.1°F10.6°C 93% 2.0 mph N3.2 kmh N 7.0 mph11.3 kmh 29.88 in1011.9 mb 0.06 in1.5 mm 0.00 in0.0 mm 0.85 in21.6 mm
11:33 AM 53.1°F11.7°C 51.1°F10.6°C 93% 4.0 mph NNE6.4 kmh NNE 8.0 mph12.9 kmh 29.89 in1012.2 mb 0.05 in1.3 mm 0.00 in0.0 mm 0.86 in21.8 mm
11:38 AM 53.1°F11.7°C 51.1°F10.6°C 93% Calm Calm -- 29.89 in1012.2 mb 0.10 in2.5 mm 0.60 in15.2 mm 0.86 in21.8 mm
11:43 AM 53.1°F11.7°C 51.1°F10.6°C 93% Calm Calm 7.0 mph11.3 kmh 29.88 in1011.9 mb 0.08 in2.0 mm 0.00 in0.0 mm 0.87 in22.1 mm
11:48 AM 53.2°F11.8°C 51.2°F10.7°C 93% 1.0 mph NE1.6 kmh NE 7.0 mph11.3 kmh 29.88 in1011.9 mb 0.15 in3.8 mm 0.84 in21.3 mm 0.88 in22.4 mm
11:53 AM 53.2°F11.8°C 51.2°F10.7°C 93% 2.0 mph NNE3.2 kmh NNE 12.0 mph19.3 kmh 29.87 in1011.5 mb 0.29 in7.4 mm 1.68 in42.7 mm 0.90 in22.9 mm
11:58 AM 53.1°F11.7°C 51.1°F10.6°C 93% Calm Calm 12.0 mph19.3 kmh 29.86 in1011.2 mb 0.49 in12.4 mm 2.40 in61.0 mm 0.92 in23.4 mm
12:03 PM 53.0°F11.7°C 51.0°F10.6°C 93% 4.0 mph NE6.4 kmh NE 9.0 mph14.5 kmh 29.86 in1011.2 mb 0.32 in8.1 mm 0.00 in0.0 mm 0.96 in24.4 mm
12:08 PM 53.0°F11.7°C 51.0°F10.6°C 93% 6.0 mph NNE9.7 kmh NNE 15.0 mph24.1 kmh 29.85 in1010.8 mb 0.24 in6.1 mm 0.00 in0.0 mm 0.98 in24.9 mm
12:13 PM 53.1°F11.7°C 51.1°F10.6°C 93% 3.0 mph NE4.8 kmh NE 15.0 mph24.1 kmh 29.85 in1010.8 mb 0.17 in4.3 mm 0.00 in0.0 mm 1.00 in25.4 mm
12:18 PM 53.1°F11.7°C 51.1°F10.6°C 93% 1.0 mph NE1.6 kmh NE 15.0 mph24.1 kmh 29.85 in1010.8 mb 0.17 in4.3 mm 0.00 in0.0 mm 1.01 in25.7 mm
12:23 PM 53.2°F11.8°C 51.2°F10.7°C 93% Calm Calm 15.0 mph24.1 kmh 29.84 in1010.5 mb 0.15 in3.8 mm 0.00 in0.0 mm 1.02 in25.9 mm
12:28 PM 53.3°F11.8°C 51.3°F10.7°C 93% Calm Calm 6.0 mph9.7 kmh 29.84 in1010.5 mb 0.15 in3.8 mm 0.00 in0.0 mm 1.04 in26.4 mm
12:33 PM 53.3°F11.8°C 51.3°F10.7°C 93% Calm Calm 12.0 mph19.3 kmh 29.84 in1010.5 mb 0.12 in3.0 mm 0.00 in0.0 mm 1.05 in26.7 mm
12:38 PM 53.5°F11.9°C 51.5°F10.8°C 93% 7.0 mph NE11.3 kmh NE 12.0 mph19.3 kmh 29.84 in1010.5 mb 0.23 in5.8 mm 1.32 in33.5 mm 1.06 in26.9 mm
12:43 PM 53.5°F11.9°C 51.5°F10.8°C 93% 2.0 mph NE3.2 kmh NE 12.0 mph19.3 kmh 29.84 in1010.5 mb 0.23 in5.8 mm 0.00 in0.0 mm 1.08 in27.4 mm
12:48 PM 53.6°F12.0°C 51.6°F10.9°C 93% Calm Calm 12.0 mph19.3 kmh 29.84 in1010.5 mb 0.20 in5.1 mm 0.00 in0.0 mm 1.10 in27.9 mm
12:53 PM 53.7°F12.1°C 51.7°F10.9°C 93% 1.0 mph N1.6 kmh N 10.0 mph16.1 kmh 29.83 in1010.2 mb 0.20 in5.1 mm 0.00 in0.0 mm 1.12 in28.4 mm
12:58 PM 53.7°F12.1°C 51.7°F10.9°C 93% Calm Calm 10.0 mph16.1 kmh 29.83 in1010.2 mb 0.17 in4.3 mm 0.00 in0.0 mm 1.13 in28.7 mm
01:03 PM 53.7°F12.1°C 51.7°F10.9°C 93% Calm Calm 11.0 mph17.7 kmh 29.83 in1010.2 mb 0.16 in4.1 mm 0.00 in0.0 mm 1.15 in29.2 mm
01:08 PM 53.7°F12.1°C 51.7°F10.9°C 93% 6.0 mph NE9.7 kmh NE 14.0 mph22.5 kmh 29.83 in1010.2 mb 0.10 in2.5 mm 0.00 in0.0 mm 1.15 in29.2 mm
01:13 PM 53.7°F12.1°C 51.7°F10.9°C 93% 2.0 mph NE3.2 kmh NE 14.0 mph22.5 kmh 29.83 in1010.2 mb 0.11 in2.8 mm 0.12 in3.0 mm 1.16 in29.5 mm
01:18 PM 53.7°F12.1°C 51.7°F10.9°C 93% Calm Calm 14.0 mph22.5 kmh 29.83 in1010.2 mb 0.20 in5.1 mm 1.08 in27.4 mm 1.18 in30.0 mm
01:23 PM 53.8°F12.1°C 51.8°F11.0°C 93% 4.0 mph NNE6.4 kmh NNE 6.0 mph9.7 kmh 29.82 in1009.8 mb 0.23 in5.8 mm 0.36 in9.1 mm 1.19 in30.2 mm
01:28 PM 53.9°F12.2°C 51.9°F11.1°C 93% 2.0 mph NNE3.2 kmh NNE 6.0 mph9.7 kmh 29.82 in1009.8 mb 0.25 in6.4 mm 0.24 in6.1 mm 1.21 in30.7 mm
01:33 PM 54.0°F12.2°C 52.0°F11.1°C 93% Calm Calm 7.0 mph11.3 kmh 29.82 in1009.8 mb 0.25 in6.4 mm 0.00 in0.0 mm 1.23 in31.2 mm
01:38 PM 54.1°F12.3°C 52.1°F11.2°C 93% 1.0 mph NNE1.6 kmh NNE 3.0 mph4.8 kmh 29.82 in1009.8 mb 0.17 in4.3 mm 0.00 in0.0 mm 1.25 in31.8 mm
01:43 PM 54.0°F12.2°C 52.0°F11.1°C 93% 8.0 mph NE12.9 kmh NE 8.0 mph12.9 kmh 29.82 in1009.8 mb 0.18 in4.6 mm 0.12 in3.0 mm 1.27 in32.3 mm
01:48 PM 54.0°F12.2°C 52.0°F11.1°C 93% Calm Calm 11.0 mph17.7 kmh 29.82 in1009.8 mb 0.16 in4.1 mm 0.00 in0.0 mm 1.28 in32.5 mm
01:53 PM 54.0°F12.2°C 52.0°F11.1°C 93% 3.0 mph NNE4.8 kmh NNE 11.0 mph17.7 kmh 29.82 in1009.8 mb 0.21 in5.3 mm 0.60 in15.2 mm 1.30 in33.0 mm
01:58 PM 54.0°F12.2°C 52.0°F11.1°C 93% Calm Calm 11.0 mph17.7 kmh 29.82 in1009.8 mb 0.18 in4.6 mm 0.00 in0.0 mm 1.31 in33.3 mm
02:03 PM 54.0°F12.2°C 52.0°F11.1°C 93% Calm Calm 11.0 mph17.7 kmh 29.82 in1009.8 mb 0.14 in3.6 mm 0.00 in0.0 mm 1.32 in33.5 mm
02:08 PM 54.1°F12.3°C 52.1°F11.2°C 93% 2.0 mph NW3.2 kmh NW 7.0 mph11.3 kmh 29.82 in1009.8 mb 0.12 in3.0 mm 0.00 in0.0 mm 1.33 in33.8 mm
02:13 PM 54.1°F12.3°C 52.1°F11.2°C 93% Calm Calm 8.0 mph12.9 kmh 29.83 in1010.2 mb 0.12 in3.0 mm 0.00 in0.0 mm 1.34 in34.0 mm
02:18 PM 54.0°F12.2°C 52.0°F11.1°C 93% 2.0 mph N3.2 kmh N 9.0 mph14.5 kmh 29.83 in1010.2 mb 0.11 in2.8 mm 0.00 in0.0 mm 1.35 in34.3 mm
02:23 PM 54.1°F12.3°C 52.1°F11.2°C 93% Calm Calm 3.0 mph4.8 kmh 29.83 in1010.2 mb 0.13 in3.3 mm 0.24 in6.1 mm 1.36 in34.5 mm
02:28 PM 54.2°F12.3°C 52.2°F11.2°C 93% Calm Calm 8.0 mph12.9 kmh 29.83 in1010.2 mb 0.14 in3.6 mm 0.12 in3.0 mm 1.37 in34.8 mm
02:33 PM 54.3°F12.4°C 52.3°F11.3°C 93% Calm Calm 4.0 mph6.4 kmh 29.83 in1010.2 mb 0.16 in4.1 mm 0.24 in6.1 mm 1.39 in35.3 mm
02:38 PM 54.3°F12.4°C 52.3°F11.3°C 93% Calm Calm 4.0 mph6.4 kmh 29.83 in1010.2 mb 0.16 in4.1 mm 0.00 in0.0 mm 1.40 in35.6 mm
02:43 PM 54.3°F12.4°C 52.3°F11.3°C 93% 3.0 mph NW4.8 kmh NW 6.0 mph9.7 kmh 29.83 in1010.2 mb 0.13 in3.3 mm 0.00 in0.0 mm 1.41 in35.8 mm
02:48 PM 54.3°F12.4°C 52.3°F11.3°C 93% Calm Calm 6.0 mph9.7 kmh 29.84 in1010.5 mb 0.12 in3.0 mm 0.00 in0.0 mm 1.42 in36.1 mm
02:53 PM 54.4°F12.4°C 52.4°F11.3°C 93% 1.0 mph NW1.6 kmh NW 8.0 mph12.9 kmh 29.84 in1010.5 mb 0.13 in3.3 mm 0.12 in3.0 mm 1.43 in36.3 mm
02:58 PM 54.4°F12.4°C 52.4°F11.3°C 93% 3.0 mph NW4.8 kmh NW 9.0 mph14.5 kmh 29.84 in1010.5 mb 0.15 in3.8 mm 0.24 in6.1 mm 1.44 in36.6 mm
03:03 PM 54.4°F12.4°C 52.4°F11.3°C 93% Calm Calm 9.0 mph14.5 kmh 29.84 in1010.5 mb 0.12 in3.0 mm 0.00 in0.0 mm 1.45 in36.8 mm
03:08 PM 54.4°F12.4°C 52.4°F11.3°C 93% Calm Calm 9.0 mph14.5 kmh 29.84 in1010.5 mb 0.12 in3.0 mm 0.00 in0.0 mm 1.46 in37.1 mm
03:13 PM 54.4°F12.4°C 52.4°F11.3°C 93% 3.0 mph WNW4.8 kmh WNW 8.0 mph12.9 kmh 29.84 in1010.5 mb 0.09 in2.3 mm 0.00 in0.0 mm 1.47 in37.3 mm
03:18 PM 54.4°F12.4°C 52.4°F11.3°C 93% 4.0 mph NW6.4 kmh NW 8.0 mph12.9 kmh 29.84 in1010.5 mb 0.09 in2.3 mm 0.00 in0.0 mm 1.48 in37.6 mm
03:23 PM 54.4°F12.4°C 52.4°F11.3°C 93% 10.0 mph NW16.1 kmh NW 10.0 mph16.1 kmh 29.85 in1010.8 mb 0.08 in2.0 mm 0.00 in0.0 mm 1.49 in37.8 mm
03:28 PM 54.3°F12.4°C 52.3°F11.3°C 93% Calm Calm 10.0 mph16.1 kmh 29.85 in1010.8 mb 0.20 in5.1 mm 1.44 in36.6 mm 1.50 in38.1 mm
03:33 PM 54.4°F12.4°C 52.4°F11.3°C 93% 8.0 mph NE12.9 kmh NE 10.0 mph16.1 kmh 29.85 in1010.8 mb 0.23 in5.8 mm 0.36 in9.1 mm 1.52 in38.6 mm
03:38 PM 54.4°F12.4°C 52.4°F11.3°C 93% 3.0 mph NNW4.8 kmh NNW 10.0 mph16.1 kmh 29.85 in1010.8 mb 0.24 in6.1 mm 0.12 in3.0 mm 1.54 in39.1 mm
03:43 PM 54.4°F12.4°C 52.4°F11.3°C 93% 7.0 mph NNE11.3 kmh NNE 8.0 mph12.9 kmh 29.85 in1010.8 mb 0.21 in5.3 mm 0.00 in0.0 mm 1.56 in39.6 mm
03:48 PM 54.4°F12.4°C 52.4°F11.3°C 93% 2.0 mph NE3.2 kmh NE 8.0 mph12.9 kmh 29.85 in1010.8 mb 0.17 in4.3 mm 0.00 in0.0 mm 1.57 in39.9 mm
03:53 PM 54.4°F12.4°C 52.4°F11.3°C 93% 6.0 mph NNE9.7 kmh NNE 8.0 mph12.9 kmh 29.85 in1010.8 mb 0.17 in4.3 mm 0.00 in0.0 mm 1.59 in40.4 mm
03:58 PM 54.4°F12.4°C 52.4°F11.3°C 93% 3.0 mph NW4.8 kmh NW 9.0 mph14.5 kmh 29.85 in1010.8 mb 0.11 in2.8 mm 0.00 in0.0 mm 1.59 in40.4 mm
04:03 PM 54.4°F12.4°C 52.4°F11.3°C 93% 4.0 mph NE6.4 kmh NE 9.0 mph14.5 kmh 29.85 in1010.8 mb 0.10 in2.5 mm 0.00 in0.0 mm 1.60 in40.6 mm
04:08 PM 54.4°F12.4°C 52.4°F11.3°C 93% Calm Calm 9.0 mph14.5 kmh 29.85 in1010.8 mb 0.10 in2.5 mm 0.00 in0.0 mm 1.61 in40.9 mm
04:13 PM 54.4°F12.4°C 52.4°F11.3°C 93% Calm Calm 9.0 mph14.5 kmh 29.85 in1010.8 mb 0.10 in2.5 mm 0.00 in0.0 mm 1.62 in41.1 mm
04:18 PM 54.4°F12.4°C 52.4°F11.3°C 93% Calm Calm 8.0 mph12.9 kmh 29.85 in1010.8 mb 0.08 in2.0 mm 0.00 in0.0 mm 1.63 in41.4 mm
04:23 PM 54.4°F12.4°C 52.4°F11.3°C 93% 2.0 mph NW3.2 kmh NW 9.0 mph14.5 kmh 29.85 in1010.8 mb 0.07 in1.8 mm 0.00 in0.0 mm 1.63 in41.4 mm
04:28 PM 54.4°F12.4°C 52.4°F11.3°C 93% 3.0 mph NNE4.8 kmh NNE 9.0 mph14.5 kmh 29.85 in1010.8 mb 0.06 in1.5 mm 0.00 in0.0 mm 1.64 in41.7 mm
04:33 PM 54.4°F12.4°C 52.4°F11.3°C 93% 1.0 mph NNE1.6 kmh NNE 9.0 mph14.5 kmh 29.85 in1010.8 mb 0.07 in1.8 mm 0.12 in3.0 mm 1.64 in41.7 mm
04:38 PM 54.4°F12.4°C 52.4°F11.3°C 93% 3.0 mph NE4.8 kmh NE 9.0 mph14.5 kmh 29.85 in1010.8 mb 0.07 in1.8 mm 0.00 in0.0 mm 1.65 in41.9 mm
04:43 PM 54.4°F12.4°C 52.4°F11.3°C 93% Calm Calm -- 29.85 in1010.8 mb 0.06 in1.5 mm 0.00 in0.0 mm 1.65 in41.9 mm
04:48 PM 54.4°F12.4°C 52.4°F11.3°C 93% Calm Calm 6.0 mph9.7 kmh 29.86 in1011.2 mb 0.05 in1.3 mm 0.00 in0.0 mm 1.65 in41.9 mm
04:53 PM 54.3°F12.4°C 52.3°F11.3°C 93% 6.0 mph NW9.7 kmh NW 6.0 mph9.7 kmh 29.86 in1011.2 mb 0.08 in2.0 mm 0.36 in9.1 mm 1.66 in42.2 mm
04:58 PM 54.2°F12.3°C 52.2°F11.2°C 93% 3.0 mph NNE4.8 kmh NNE 10.0 mph16.1 kmh 29.86 in1011.2 mb 0.08 in2.0 mm 0.00 in0.0 mm 1.67 in42.4 mm
05:03 PM 54.1°F12.3°C 52.1°F11.2°C 93% Calm Calm 10.0 mph16.1 kmh 29.86 in1011.2 mb 0.07 in1.8 mm 0.00 in0.0 mm 1.67 in42.4 mm
05:08 PM 54.0°F12.2°C 52.0°F11.1°C 93% Calm Calm 10.0 mph16.1 kmh 29.86 in1011.2 mb 0.07 in1.8 mm 0.00 in0.0 mm 1.68 in42.7 mm
05:13 PM 53.8°F12.1°C 51.8°F11.0°C 93% 3.0 mph N4.8 kmh N 10.0 mph16.1 kmh 29.86 in1011.2 mb 0.05 in1.3 mm 0.00 in0.0 mm 1.68 in42.7 mm
05:18 PM 53.7°F12.1°C 51.7°F10.9°C 93% 2.0 mph NE3.2 kmh NE 10.0 mph16.1 kmh 29.86 in1011.2 mb 0.05 in1.3 mm 0.00 in0.0 mm 1.69 in42.9 mm
05:23 PM 53.6°F12.0°C 51.6°F10.9°C 93% 3.0 mph NNW4.8 kmh NNW 12.0 mph19.3 kmh 29.86 in1011.2 mb 0.05 in1.3 mm 0.00 in0.0 mm 1.69 in42.9 mm
05:28 PM 53.6°F12.0°C 51.6°F10.9°C 93% Calm Calm 12.0 mph19.3 kmh 29.86 in1011.2 mb 0.04 in1.0 mm 0.00 in0.0 mm 1.69 in42.9 mm
05:33 PM 53.6°F12.0°C 51.6°F10.9°C 93% 4.0 mph NE6.4 kmh NE 12.0 mph19.3 kmh 29.87 in1011.5 mb 0.00 in0.0 mm 0.00 in0.0 mm 1.69 in42.9 mm
05:38 PM 53.6°F12.0°C 51.6°F10.9°C 93% 2.0 mph NW3.2 kmh NW 12.0 mph19.3 kmh 29.87 in1011.5 mb 0.00 in0.0 mm 0.00 in0.0 mm 1.69 in42.9 mm
05:43 PM 53.6°F12.0°C 51.6°F10.9°C 93% 1.0 mph NNW1.6 kmh NNW 8.0 mph12.9 kmh 29.87 in1011.5 mb 0.00 in0.0 mm 0.00 in0.0 mm 1.69 in42.9 mm
05:48 PM 53.6°F12.0°C 51.6°F10.9°C 93% 1.0 mph NW1.6 kmh NW 2.0 mph3.2 kmh 29.87 in1011.5 mb 0.00 in0.0 mm 0.00 in0.0 mm 1.69 in42.9 mm
05:53 PM 53.6°F12.0°C 51.6°F10.9°C 93% 8.0 mph NNW12.9 kmh NNW 10.0 mph16.1 kmh 29.87 in1011.5 mb 0.00 in0.0 mm 0.00 in0.0 mm 1.69 in42.9 mm
05:58 PM 53.6°F12.0°C 51.6°F10.9°C 93% Calm Calm 8.0 mph12.9 kmh 29.87 in1011.5 mb 0.00 in0.0 mm 0.00 in0.0 mm 1.69 in42.9 mm
06:03 PM 53.6°F12.0°C 51.6°F10.9°C 93% 5.0 mph NE8.0 kmh NE 8.0 mph12.9 kmh 29.87 in1011.5 mb 0.00 in0.0 mm 0.00 in0.0 mm 1.69 in42.9 mm
06:08 PM 53.6°F12.0°C 51.6°F10.9°C 93% 3.0 mph NW4.8 kmh NW 9.0 mph14.5 kmh 29.88 in1011.9 mb 0.00 in0.0 mm 0.00 in0.0 mm 1.69 in42.9 mm
06:13 PM 53.7°F12.1°C 51.7°F10.9°C 93% 1.0 mph N1.6 kmh N 4.0 mph6.4 kmh 29.88 in1011.9 mb 0.00 in0.0 mm 0.00 in0.0 mm 1.69 in42.9 mm
06:18 PM 53.7°F12.1°C 51.7°F10.9°C 93% 1.0 mph 1.6 kmh 5.0 mph8.0 kmh 29.88 in1011.9 mb 0.00 in0.0 mm 0.00 in0.0 mm 1.69 in42.9 mm
06:23 PM 53.7°F12.1°C 51.7°F10.9°C 93% Calm Calm 9.0 mph14.5 kmh 29.88 in1011.9 mb 0.00 in0.0 mm 0.00 in0.0 mm 1.69 in42.9 mm
06:28 PM 53.7°F12.1°C 51.7°F10.9°C 93% 1.0 mph N1.6 kmh N 9.0 mph14.5 kmh 29.88 in1011.9 mb 0.00 in0.0 mm 0.00 in0.0 mm 1.69 in42.9 mm
06:33 PM 53.7°F12.1°C 51.7°F10.9°C 93% 3.0 mph NW4.8 kmh NW 10.0 mph16.1 kmh 29.88 in1011.9 mb 0.00 in0.0 mm 0.00 in0.0 mm 1.69 in42.9 mm
06:38 PM 53.7°F12.1°C 51.7°F10.9°C 93% Calm Calm 10.0 mph16.1 kmh 29.88 in1011.9 mb 0.00 in0.0 mm 0.00 in0.0 mm 1.69 in42.9 mm
06:43 PM 53.7°F12.1°C 51.7°F10.9°C 93% Calm Calm 7.0 mph11.3 kmh 29.89 in1012.2 mb 0.00 in0.0 mm 0.00 in0.0 mm 1.69 in42.9 mm
06:48 PM 53.7°F12.1°C 51.7°F10.9°C 93% 3.0 mph NW4.8 kmh NW 3.0 mph4.8 kmh 29.89 in1012.2 mb 0.00 in0.0 mm 0.00 in0.0 mm 1.69 in42.9 mm
06:53 PM 53.7°F12.1°C 51.7°F10.9°C 93% Calm Calm 8.0 mph12.9 kmh 29.89 in1012.2 mb 0.00 in0.0 mm 0.00 in0.0 mm 1.69 in42.9 mm
06:58 PM 53.7°F12.1°C 51.7°F10.9°C 93% 1.0 mph NNW1.6 kmh NNW 1.0 mph1.6 kmh 29.89 in1012.2 mb 0.00 in0.0 mm 0.00 in0.0 mm 1.69 in42.9 mm
07:03 PM 53.7°F12.1°C 51.7°F10.9°C 93% 3.0 mph NNE4.8 kmh NNE 4.0 mph6.4 kmh 29.89 in1012.2 mb 0.00 in0.0 mm 0.00 in0.0 mm 1.69 in42.9 mm
07:08 PM 53.7°F12.1°C 51.7°F10.9°C 93% Calm Calm 5.0 mph8.0 kmh 29.89 in1012.2 mb 0.00 in0.0 mm 0.00 in0.0 mm 1.69 in42.9 mm
07:13 PM 53.7°F12.1°C 51.7°F10.9°C 93% 5.0 mph NE8.0 kmh NE 5.0 mph8.0 kmh 29.89 in1012.2 mb 0.00 in0.0 mm 0.00 in0.0 mm 1.69 in42.9 mm
07:18 PM 53.6°F12.0°C 51.6°F10.9°C 93% Calm Calm 6.0 mph9.7 kmh 29.89 in1012.2 mb 0.00 in0.0 mm 0.00 in0.0 mm 1.69 in42.9 mm
07:23 PM 53.7°F12.1°C 51.7°F10.9°C 93% 4.0 mph W6.4 kmh W 5.0 mph8.0 kmh 29.90 in1012.5 mb 0.00 in0.0 mm 0.00 in0.0 mm 1.69 in42.9 mm
07:28 PM 53.6°F12.0°C 51.6°F10.9°C 93% 2.0 mph NE3.2 kmh NE 7.0 mph11.3 kmh 29.90 in1012.5 mb 0.00 in0.0 mm 0.00 in0.0 mm 1.69 in42.9 mm
07:33 PM 53.6°F12.0°C 51.6°F10.9°C 93% Calm Calm 5.0 mph8.0 kmh 29.90 in1012.5 mb 0.00 in0.0 mm 0.00 in0.0 mm 1.69 in42.9 mm
07:38 PM 53.6°F12.0°C 51.6°F10.9°C 93% Calm Calm 5.0 mph8.0 kmh 29.90 in1012.5 mb 0.00 in0.0 mm 0.00 in0.0 mm 1.69 in42.9 mm
07:43 PM 53.6°F12.0°C 51.6°F10.9°C 93% 3.0 mph NNW4.8 kmh NNW 5.0 mph8.0 kmh 29.91 in1012.9 mb 0.00 in0.0 mm 0.00 in0.0 mm 1.69 in42.9 mm
07:48 PM 53.5°F11.9°C 51.5°F10.8°C 93% 2.0 mph NW3.2 kmh NW 2.0 mph3.2 kmh 29.91 in1012.9 mb 0.00 in0.0 mm 0.00 in0.0 mm 1.69 in42.9 mm
07:53 PM 53.5°F11.9°C 51.5°F10.8°C 93% Calm Calm 6.0 mph9.7 kmh 29.91 in1012.9 mb 0.00 in0.0 mm 0.00 in0.0 mm 1.69 in42.9 mm
07:58 PM 53.5°F11.9°C 51.5°F10.8°C 93% Calm Calm 1.0 mph1.6 kmh 29.91 in1012.9 mb 0.00 in0.0 mm 0.00 in0.0 mm 1.69 in42.9 mm
08:03 PM 53.5°F11.9°C 51.5°F10.8°C 93% Calm Calm -- 29.91 in1012.9 mb 0.00 in0.0 mm 0.00 in0.0 mm 1.69 in42.9 mm
08:08 PM 53.5°F11.9°C 51.5°F10.8°C 93% 1.0 mph NNE1.6 kmh NNE 4.0 mph6.4 kmh 29.91 in1012.9 mb 0.00 in0.0 mm 0.00 in0.0 mm 1.69 in42.9 mm
08:13 PM 53.5°F11.9°C 51.5°F10.8°C 93% Calm Calm -- 29.91 in1012.9 mb 0.00 in0.0 mm 0.00 in0.0 mm 1.69 in42.9 mm
08:18 PM 53.4°F11.9°C 51.4°F10.8°C 93% 2.0 mph NW3.2 kmh NW 4.0 mph6.4 kmh 29.91 in1012.9 mb 0.00 in0.0 mm 0.00 in0.0 mm 1.69 in42.9 mm
08:23 PM 53.4°F11.9°C 51.4°F10.8°C 93% Calm Calm -- 29.91 in1012.9 mb 0.00 in0.0 mm 0.00 in0.0 mm 1.69 in42.9 mm
08:28 PM 53.3°F11.8°C 51.3°F10.7°C 93% Calm Calm 5.0 mph8.0 kmh 29.91 in1012.9 mb 0.00 in0.0 mm 0.00 in0.0 mm 1.69 in42.9 mm
08:33 PM 53.3°F11.8°C 51.3°F10.7°C 93% Calm Calm 7.0 mph11.3 kmh 29.91 in1012.9 mb 0.00 in0.0 mm 0.00 in0.0 mm 1.69 in42.9 mm
08:38 PM 53.3°F11.8°C 51.3°F10.7°C 93% Calm Calm -- 29.92 in1013.2 mb 0.00 in0.0 mm 0.00 in0.0 mm 1.69 in42.9 mm
08:43 PM 53.3°F11.8°C 51.3°F10.7°C 93% Calm Calm 3.0 mph4.8 kmh 29.92 in1013.2 mb 0.00 in0.0 mm 0.00 in0.0 mm 1.69 in42.9 mm
08:48 PM 53.2°F11.8°C 51.2°F10.7°C 93% Calm Calm 6.0 mph9.7 kmh 29.92 in1013.2 mb 0.00 in0.0 mm 0.00 in0.0 mm 1.69 in42.9 mm
08:53 PM 53.3°F11.8°C 51.3°F10.7°C 93% 1.0 mph NW1.6 kmh NW 4.0 mph6.4 kmh 29.93 in1013.5 mb 0.00 in0.0 mm 0.00 in0.0 mm 1.69 in42.9 mm
08:58 PM 53.2°F11.8°C 51.2°F10.7°C 93% 1.0 mph NW1.6 kmh NW 7.0 mph11.3 kmh 29.93 in1013.5 mb 0.00 in0.0 mm 0.00 in0.0 mm 1.69 in42.9 mm
09:03 PM 53.2°F11.8°C 51.2°F10.7°C 93% Calm Calm 5.0 mph8.0 kmh 29.93 in1013.5 mb 0.00 in0.0 mm 0.00 in0.0 mm 1.69 in42.9 mm
09:08 PM 53.2°F11.8°C 51.2°F10.7°C 93% Calm Calm 4.0 mph6.4 kmh 29.93 in1013.5 mb 0.00 in0.0 mm 0.00 in0.0 mm 1.69 in42.9 mm
09:13 PM 53.1°F11.7°C 51.1°F10.6°C 93% Calm Calm 5.0 mph8.0 kmh 29.93 in1013.5 mb 0.00 in0.0 mm 0.00 in0.0 mm 1.69 in42.9 mm
09:18 PM 53.1°F11.7°C 51.1°F10.6°C 93% Calm Calm 4.0 mph6.4 kmh 29.94 in1013.9 mb 0.00 in0.0 mm 0.00 in0.0 mm 1.69 in42.9 mm
09:23 PM 53.1°F11.7°C 51.1°F10.6°C 93% Calm Calm 2.0 mph3.2 kmh 29.94 in1013.9 mb 0.00 in0.0 mm 0.00 in0.0 mm 1.69 in42.9 mm
09:28 PM 53.2°F11.8°C 51.2°F10.7°C 93% Calm Calm -- 29.94 in1013.9 mb 0.00 in0.0 mm 0.00 in0.0 mm 1.69 in42.9 mm
09:33 PM 53.2°F11.8°C 51.2°F10.7°C 93% 3.0 mph NW4.8 kmh NW 5.0 mph8.0 kmh 29.94 in1013.9 mb 0.00 in0.0 mm 0.00 in0.0 mm 1.69 in42.9 mm
09:38 PM 53.2°F11.8°C 51.2°F10.7°C 93% Calm Calm -- 29.94 in1013.9 mb 0.00 in0.0 mm 0.00 in0.0 mm 1.69 in42.9 mm
09:43 PM 53.2°F11.8°C 51.2°F10.7°C 93% Calm Calm 2.0 mph3.2 kmh 29.95 in1014.2 mb 0.00 in0.0 mm 0.00 in0.0 mm 1.69 in42.9 mm
09:48 PM 53.2°F11.8°C 51.2°F10.7°C 93% Calm Calm 4.0 mph6.4 kmh 29.95 in1014.2 mb 0.00 in0.0 mm 0.00 in0.0 mm 1.69 in42.9 mm
09:53 PM 53.2°F11.8°C 51.2°F10.7°C 93% Calm Calm -- 29.95 in1014.2 mb 0.00 in0.0 mm 0.00 in0.0 mm 1.69 in42.9 mm
09:58 PM 53.3°F11.8°C 51.3°F10.7°C 93% Calm Calm -- 29.95 in1014.2 mb 0.00 in0.0 mm 0.00 in0.0 mm 1.69 in42.9 mm
10:03 PM 53.3°F11.8°C 51.3°F10.7°C 93% Calm Calm 3.0 mph4.8 kmh 29.95 in1014.2 mb 0.00 in0.0 mm 0.00 in0.0 mm 1.69 in42.9 mm
10:08 PM 53.3°F11.8°C 51.3°F10.7°C 93% Calm Calm -- 29.95 in1014.2 mb 0.00 in0.0 mm 0.00 in0.0 mm 1.69 in42.9 mm
10:13 PM 53.3°F11.8°C 51.3°F10.7°C 93% Calm Calm -- 29.95 in1014.2 mb 0.00 in0.0 mm 0.00 in0.0 mm 1.69 in42.9 mm
10:18 PM 53.2°F11.8°C 51.2°F10.7°C 93% Calm Calm -- 29.95 in1014.2 mb 0.00 in0.0 mm 0.00 in0.0 mm 1.69 in42.9 mm
10:23 PM 53.2°F11.8°C 51.2°F10.7°C 93% Calm Calm 5.0 mph8.0 kmh 29.95 in1014.2 mb 0.00 in0.0 mm 0.00 in0.0 mm 1.69 in42.9 mm
10:28 PM 53.2°F11.8°C 51.2°F10.7°C 93% Calm Calm -- 29.95 in1014.2 mb 0.00 in0.0 mm 0.00 in0.0 mm 1.69 in42.9 mm
10:33 PM 53.2°F11.8°C 51.2°F10.7°C 93% Calm Calm 5.0 mph8.0 kmh 29.95 in1014.2 mb 0.00 in0.0 mm 0.00 in0.0 mm 1.69 in42.9 mm
10:38 PM 53.2°F11.8°C 51.2°F10.7°C 93% Calm Calm 5.0 mph8.0 kmh 29.95 in1014.2 mb 0.00 in0.0 mm 0.00 in0.0 mm 1.69 in42.9 mm
10:43 PM 53.1°F11.7°C 51.1°F10.6°C 93% Calm Calm 5.0 mph8.0 kmh 29.94 in1013.9 mb 0.00 in0.0 mm 0.00 in0.0 mm 1.69 in42.9 mm
10:48 PM 53.1°F11.7°C 51.1°F10.6°C 93% Calm Calm 3.0 mph4.8 kmh 29.94 in1013.9 mb 0.00 in0.0 mm 0.00 in0.0 mm 1.69 in42.9 mm
10:53 PM 53.1°F11.7°C 51.1°F10.6°C 93% Calm Calm 2.0 mph3.2 kmh 29.94 in1013.9 mb 0.00 in0.0 mm 0.00 in0.0 mm 1.69 in42.9 mm
10:58 PM 53.1°F11.7°C 51.1°F10.6°C 93% Calm Calm 4.0 mph6.4 kmh 29.95 in1014.2 mb 0.00 in0.0 mm 0.00 in0.0 mm 1.69 in42.9 mm
11:03 PM 53.1°F11.7°C 51.1°F10.6°C 93% Calm Calm -- 29.95 in1014.2 mb 0.00 in0.0 mm 0.00 in0.0 mm 3.08 in78.2 mm
11:08 PM 53.2°F11.8°C 51.2°F10.7°C 93% Calm Calm -- 29.95 in1014.2 mb 0.00 in0.0 mm 0.00 in0.0 mm 3.08 in78.2 mm
11:13 PM 53.2°F11.8°C 51.2°F10.7°C 93% Calm Calm -- 29.95 in1014.2 mb 0.00 in0.0 mm 0.00 in0.0 mm 3.08 in78.2 mm
11:18 PM 53.2°F11.8°C 51.2°F10.7°C 93% Calm Calm -- 29.95 in1014.2 mb 0.00 in0.0 mm 0.00 in0.0 mm 3.08 in78.2 mm
11:23 PM 53.2°F11.8°C 51.2°F10.7°C 93% 5.0 mph NNW8.0 kmh NNW 6.0 mph9.7 kmh 29.95 in1014.2 mb 0.00 in0.0 mm 0.00 in0.0 mm 3.08 in78.2 mm
11:28 PM 53.1°F11.7°C 51.1°F10.6°C 93% Calm Calm 6.0 mph9.7 kmh 29.95 in1014.2 mb 0.00 in0.0 mm 0.00 in0.0 mm 3.08 in78.2 mm
11:33 PM 53.1°F11.7°C 51.1°F10.6°C 93% 3.0 mph NW4.8 kmh NW 10.0 mph16.1 kmh 29.96 in1014.6 mb 0.00 in0.0 mm 0.00 in0.0 mm 3.08 in78.2 mm
11:38 PM 53.0°F11.7°C 51.0°F10.6°C 93% Calm Calm 3.0 mph4.8 kmh 29.95 in1014.2 mb 0.00 in0.0 mm 0.00 in0.0 mm 3.08 in78.2 mm
11:43 PM 53.0°F11.7°C 51.0°F10.6°C 93% 3.0 mph NW4.8 kmh NW 7.0 mph11.3 kmh 29.96 in1014.6 mb 0.00 in0.0 mm 0.00 in0.0 mm 3.08 in78.2 mm
11:48 PM 52.9°F11.6°C 50.9°F10.5°C 93% 3.0 mph NNW4.8 kmh NNW 11.0 mph17.7 kmh 29.96 in1014.6 mb 0.00 in0.0 mm 0.00 in0.0 mm 3.08 in78.2 mm
11:53 PM 52.8°F11.6°C 50.8°F10.4°C 93% 3.0 mph NW4.8 kmh NW 11.0 mph17.7 kmh 29.96 in1014.6 mb 0.00 in0.0 mm 0.00 in0.0 mm 3.08 in78.2 mm
11:58 PM 52.8°F11.6°C 50.8°F10.4°C 93% 7.0 mph NW11.3 kmh NW 11.0 mph17.7 kmh 29.96 in1014.6 mb 0.00 in0.0 mm 0.00 in0.0 mm 3.08 in78.2 mm